createdAt,value
2018-07-05T00:00:41.607Z,67.46
2018-07-05T00:03:28.042Z,67.62
2018-07-05T00:06:14.285Z,69.62
2018-07-05T00:09:00.685Z,68.42
2018-07-05T00:11:47.053Z,67.39
2018-07-05T00:14:33.462Z,67.59
2018-07-05T00:17:19.770Z,67.71
2018-07-05T00:20:06.128Z,68.00
2018-07-05T00:22:52.485Z,65.47
2018-07-05T00:25:38.881Z,66.80
2018-07-05T00:28:25.282Z,66.66
2018-07-05T00:31:11.638Z,68.74
2018-07-05T00:33:58.033Z,68.61
2018-07-05T00:36:44.361Z,68.34
2018-07-05T00:39:30.757Z,68.85
2018-07-05T00:42:17.121Z,67.39
2018-07-05T00:45:03.585Z,68.79
2018-07-05T00:47:49.935Z,67.27
2018-07-05T00:50:36.302Z,67.40
2018-07-05T00:53:22.649Z,66.66
2018-07-05T00:56:09.048Z,67.55
2018-07-05T00:58:55.452Z,67.87
2018-07-05T01:01:41.782Z,68.03
2018-07-05T01:04:28.209Z,69.07
2018-07-05T01:07:14.539Z,67.88
2018-07-05T01:10:00.956Z,67.87
2018-07-05T01:12:47.227Z,69.93
2018-07-05T01:15:33.674Z,69.75
2018-07-05T01:18:20.043Z,67.47
2018-07-05T01:21:06.449Z,70.24
2018-07-05T01:23:52.834Z,68.57
2018-07-05T01:26:39.189Z,69.91
2018-07-05T01:29:25.612Z,71.38
2018-07-05T01:32:11.982Z,70.06
2018-07-05T01:34:58.366Z,68.99
2018-07-05T01:37:44.745Z,69.29
2018-07-05T01:40:31.216Z,71.42
2018-07-05T01:43:17.465Z,71.24
2018-07-05T01:46:03.856Z,68.74
2018-07-05T01:48:50.247Z,69.64
2018-07-05T01:51:36.605Z,68.88
2018-07-05T01:54:23.000Z,68.04
2018-07-05T01:57:09.351Z,69.18
2018-07-05T01:59:55.729Z,67.88
2018-07-05T02:02:42.097Z,68.78
2018-07-05T02:05:28.424Z,68.52
2018-07-05T02:08:14.906Z,67.80
2018-07-05T02:11:01.193Z,69.53
2018-07-05T02:13:47.568Z,68.48
2018-07-05T02:16:33.953Z,69.23
2018-07-05T02:19:20.289Z,68.73
2018-07-05T02:22:06.653Z,68.46
2018-07-05T02:24:53.097Z,67.58
2018-07-05T02:27:39.447Z,69.17
2018-07-05T02:30:25.837Z,67.73
2018-07-05T02:33:12.045Z,68.55
2018-07-05T02:35:58.414Z,68.95
2018-07-05T02:38:48.905Z,69.32
2018-07-05T02:41:35.084Z,68.73
2018-07-05T02:44:21.294Z,68.57
2018-07-05T02:47:07.643Z,68.55
2018-07-05T02:49:53.989Z,70.30
2018-07-05T02:52:40.398Z,69.98
2018-07-05T02:55:26.823Z,70.71
2018-07-05T02:58:13.231Z,70.98
2018-07-05T03:00:59.580Z,69.69
2018-07-05T03:03:45.917Z,68.60
2018-07-05T03:06:32.285Z,68.73
2018-07-05T03:09:18.724Z,71.02
2018-07-05T03:12:05.111Z,70.10
2018-07-05T03:14:51.549Z,67.76
2018-07-05T03:17:37.957Z,68.44
2018-07-05T03:20:24.329Z,70.55
2018-07-05T03:23:10.711Z,68.69
2018-07-05T03:25:57.118Z,68.68
2018-07-05T03:28:43.462Z,67.86
2018-07-05T03:31:29.824Z,68.79
2018-07-05T03:34:16.201Z,68.27
2018-07-05T03:37:02.645Z,68.89
2018-07-05T03:39:49.016Z,67.44
2018-07-05T03:42:35.274Z,67.92
2018-07-05T03:45:21.626Z,68.29
2018-07-05T03:48:08.201Z,67.20
2018-07-05T03:50:54.542Z,67.65
2018-07-05T03:53:42.430Z,68.86
2018-07-05T03:56:28.777Z,68.48
2018-07-05T03:59:15.201Z,68.29
2018-07-05T04:02:01.598Z,65.86
2018-07-05T04:04:48.003Z,67.70
2018-07-05T04:07:34.407Z,68.08
2018-07-05T04:10:20.697Z,67.86
2018-07-05T04:13:06.957Z,68.16
2018-07-05T04:15:53.311Z,68.40
2018-07-05T04:18:39.706Z,68.07
2018-07-05T04:21:26.163Z,68.19
2018-07-05T04:24:12.398Z,67.28
2018-07-05T04:26:58.808Z,69.08
2018-07-05T04:29:45.207Z,70.07
2018-07-05T04:32:31.567Z,68.11
2018-07-05T04:35:17.935Z,68.32
2018-07-05T04:38:04.305Z,67.29
2018-07-05T04:40:50.719Z,68.63
2018-07-05T04:43:37.051Z,67.13
2018-07-05T04:46:23.418Z,65.27
2018-07-05T04:49:09.810Z,65.65
2018-07-05T04:51:56.156Z,64.76
2018-07-05T04:54:42.448Z,64.32
2018-07-05T04:57:28.815Z,63.79
2018-07-05T05:00:15.193Z,64.44
2018-07-05T05:03:01.566Z,63.37
2018-07-05T05:05:47.864Z,63.34
2018-07-05T05:08:34.195Z,61.68
2018-07-05T05:11:20.442Z,60.53
2018-07-05T05:14:06.836Z,61.09
2018-07-05T05:16:53.217Z,60.54
2018-07-05T05:19:39.513Z,60.83
2018-07-05T05:22:25.871Z,59.26
2018-07-05T05:25:12.287Z,56.46
2018-07-05T05:27:58.480Z,53.16
2018-07-05T05:30:44.888Z,50.63
2018-07-05T05:33:31.160Z,49.34
2018-07-05T05:36:17.585Z,46.94
2018-07-05T05:39:04.972Z,42.84
2018-07-05T05:41:51.198Z,45.39
2018-07-05T05:44:37.537Z,44.00
2018-07-05T05:47:23.725Z,43.48
2018-07-05T05:50:10.178Z,43.04
2018-07-05T05:52:56.621Z,42.34
2018-07-05T05:55:42.880Z,41.48
2018-07-05T05:58:29.154Z,40.86
2018-07-05T06:01:15.652Z,41.44
2018-07-05T06:04:01.902Z,40.63
2018-07-05T06:06:48.324Z,39.41
2018-07-05T06:09:35.610Z,38.04
2018-07-05T06:12:21.965Z,40.19
2018-07-05T06:15:08.405Z,42.40
2018-07-05T06:17:54.748Z,42.02
2018-07-05T06:20:41.511Z,40.52
2018-07-05T06:23:28.650Z,41.13
2018-07-05T06:26:15.058Z,39.00
2018-07-05T06:29:01.463Z,36.45
2018-07-05T06:31:47.851Z,37.76
2018-07-05T06:34:34.263Z,37.22
2018-07-05T06:37:20.629Z,38.45
2018-07-05T06:40:06.998Z,37.27
2018-07-05T06:42:53.401Z,38.43
2018-07-05T06:45:39.809Z,34.22
2018-07-05T06:48:26.227Z,33.08
2018-07-05T06:51:12.609Z,33.92
2018-07-05T06:53:59.012Z,33.95
2018-07-05T06:56:45.378Z,33.40
2018-07-05T06:59:31.708Z,35.01
2018-07-05T07:02:18.118Z,32.69
2018-07-05T07:05:04.498Z,34.43
2018-07-05T07:07:50.890Z,34.10
2018-07-05T07:10:37.197Z,30.17
2018-07-05T07:13:23.573Z,31.93
2018-07-05T07:16:09.922Z,32.21
2018-07-05T07:18:56.315Z,31.90
2018-07-05T07:21:42.574Z,31.94
2018-07-05T07:24:29.010Z,31.44
2018-07-05T07:27:15.326Z,30.85
2018-07-05T07:30:01.689Z,29.92
2018-07-05T07:32:48.144Z,27.87
2018-07-05T07:35:34.508Z,25.83
2018-07-05T07:38:20.732Z,27.87
2018-07-05T07:41:07.140Z,27.89
2018-07-05T07:43:41.073Z,26.20
2018-07-05T07:46:08.897Z,25.76
2018-07-05T07:48:36.723Z,24.59
2018-07-05T07:51:04.550Z,24.79
2018-07-05T07:53:32.368Z,25.70
2018-07-05T07:56:00.200Z,24.97
2018-07-05T07:58:28.071Z,26.53
2018-07-05T08:00:55.973Z,27.13
2018-07-05T08:03:23.777Z,29.35
2018-07-05T08:05:51.652Z,29.23
2018-07-05T08:08:19.466Z,29.01
2018-07-05T08:10:47.266Z,28.09
2018-07-05T08:13:15.213Z,27.64
2018-07-05T08:15:43.205Z,28.68
2018-07-05T08:18:11.019Z,29.39
2018-07-05T08:20:38.908Z,28.65
2018-07-05T08:23:06.816Z,30.18
2018-07-05T08:25:34.657Z,26.90
2018-07-05T08:28:02.515Z,29.56
2018-07-05T08:30:30.312Z,30.55
2018-07-05T08:35:24.970Z,31.44
2018-07-05T08:37:52.845Z,30.69
2018-07-05T08:40:20.677Z,29.46
2018-07-05T08:42:48.829Z,29.62
2018-07-05T08:45:16.948Z,29.67
2018-07-05T08:47:45.020Z,32.21
2018-07-05T08:50:12.867Z,29.41
2018-07-05T08:52:40.690Z,30.30
2018-07-05T08:55:08.499Z,28.44
2018-07-05T08:57:36.379Z,30.82
2018-07-05T09:00:04.178Z,32.16
2018-07-05T09:02:32.090Z,33.21
2018-07-05T09:04:59.906Z,32.91
2018-07-05T09:07:27.787Z,33.47
2018-07-05T09:09:55.644Z,35.27
2018-07-05T09:12:23.505Z,33.56
2018-07-05T09:14:51.338Z,36.74
2018-07-05T09:17:19.139Z,37.48
2018-07-05T09:19:46.941Z,38.33
2018-07-05T09:22:14.746Z,37.40
2018-07-05T09:24:42.578Z,37.16
2018-07-05T09:27:10.385Z,39.45
2018-07-05T09:29:38.247Z,39.64
2018-07-05T09:32:06.041Z,38.85
2018-07-05T09:34:33.997Z,39.18
2018-07-05T09:37:01.828Z,38.59
2018-07-05T09:39:29.667Z,37.73
2018-07-05T09:41:57.493Z,38.41
2018-07-05T09:44:25.311Z,37.60
2018-07-05T09:46:53.143Z,38.92
2018-07-05T09:49:20.971Z,39.30
2018-07-05T09:51:48.786Z,36.65
2018-07-05T09:54:16.636Z,36.61
2018-07-05T09:56:44.471Z,37.84
2018-07-05T09:59:12.549Z,38.02
2018-07-05T10:01:40.350Z,37.37
2018-07-05T10:04:08.178Z,35.44
2018-07-05T10:06:36.001Z,35.81
2018-07-05T10:09:04.827Z,36.56
2018-07-05T10:11:32.653Z,38.40
2018-07-05T10:14:00.706Z,39.68
2018-07-05T10:16:28.784Z,39.60
2018-07-05T10:18:56.672Z,39.13
2018-07-05T10:21:24.482Z,42.89
2018-07-05T10:23:52.368Z,41.63
2018-07-05T10:26:20.177Z,47.05
2018-07-05T10:29:00.322Z,45.82
2018-07-05T10:31:47.152Z,56.40
2018-07-05T10:34:21.145Z,54.66
2018-07-05T10:36:48.949Z,54.27
2018-07-05T10:39:16.769Z,56.43
2018-07-05T10:41:57.290Z,58.33
2018-07-05T10:44:43.850Z,60.60
2018-07-05T10:47:31.406Z,58.69
2018-07-05T10:50:17.996Z,60.84
2018-07-05T10:53:04.579Z,63.97
2018-07-05T10:55:51.168Z,63.04
2018-07-05T10:58:37.764Z,64.29
2018-07-05T11:01:24.429Z,64.48
2018-07-05T11:04:10.981Z,60.91
2018-07-05T11:06:57.498Z,60.48
2018-07-05T11:09:44.020Z,60.48
2018-07-05T11:12:30.686Z,62.31
2018-07-05T11:15:17.350Z,62.44
2018-07-05T11:18:04.061Z,62.17
2018-07-05T11:20:50.681Z,61.01
2018-07-05T11:23:37.158Z,62.41
2018-07-05T11:26:23.824Z,64.84
2018-07-05T11:29:10.423Z,63.99
2018-07-05T11:31:57.072Z,64.44
2018-07-05T11:34:43.690Z,64.29
2018-07-05T11:37:30.318Z,64.52
2018-07-05T11:40:17.235Z,65.03
2018-07-05T11:43:03.705Z,64.75
2018-07-05T11:45:50.373Z,64.31
2018-07-05T11:48:37.031Z,63.81
2018-07-05T11:51:23.592Z,62.83
2018-07-05T11:54:10.351Z,62.99
2018-07-05T11:59:57.689Z,64.73
2018-07-05T12:02:44.404Z,65.00
2018-07-05T12:05:30.806Z,65.16
2018-07-05T12:08:17.282Z,65.93
2018-07-05T12:11:03.907Z,67.42
2018-07-05T12:13:50.511Z,66.66
2018-07-05T12:16:37.107Z,67.75
2018-07-05T12:19:23.635Z,69.11
2018-07-05T12:22:10.287Z,69.32
2018-07-05T12:24:56.842Z,68.95
2018-07-05T12:27:43.304Z,68.62
2018-07-05T12:30:30.113Z,66.29
2018-07-05T12:33:16.538Z,65.53
2018-07-05T12:36:02.838Z,66.03
2018-07-05T12:38:49.470Z,66.50
2018-07-05T12:41:37.018Z,63.86
2018-07-05T12:44:23.465Z,65.05
2018-07-05T12:47:09.984Z,64.71
2018-07-05T12:49:56.432Z,67.62
2018-07-05T12:52:43.579Z,68.01
2018-07-05T12:55:30.098Z,67.58
2018-07-05T12:58:16.703Z,68.40
2018-07-05T13:01:03.298Z,68.69
2018-07-05T13:03:49.885Z,69.15
2018-07-05T13:06:36.446Z,69.84
2018-07-05T13:09:22.972Z,70.05
2018-07-05T13:12:09.430Z,68.23
2018-07-05T13:14:56.017Z,67.67
2018-07-05T13:17:42.641Z,66.99
2018-07-05T13:20:29.031Z,68.92
2018-07-05T13:23:15.449Z,67.88
2018-07-05T13:26:02.034Z,66.83
2018-07-05T13:28:48.514Z,67.61
2018-07-05T13:31:35.074Z,68.12
2018-07-05T13:34:21.489Z,68.16
2018-07-05T13:37:07.932Z,65.88
2018-07-05T13:39:55.720Z,65.61
2018-07-05T13:42:42.228Z,68.31
2018-07-05T13:45:28.644Z,68.76
2018-07-05T13:48:15.087Z,67.30
2018-07-05T13:51:01.654Z,67.15
2018-07-05T13:53:48.172Z,66.57
2018-07-05T13:56:34.825Z,65.48
2018-07-05T13:59:21.489Z,65.87
2018-07-05T14:02:08.028Z,63.47
2018-07-05T14:04:54.756Z,63.32
2018-07-05T14:07:42.318Z,62.85
2018-07-05T14:10:28.897Z,58.48
2018-07-05T14:13:15.379Z,58.17
2018-07-05T14:16:01.990Z,57.01
2018-07-05T14:18:48.497Z,57.51
2018-07-05T14:21:35.081Z,57.20
2018-07-05T14:24:21.638Z,56.75
2018-07-05T14:27:08.217Z,54.79
2018-07-05T14:29:54.897Z,56.82
2018-07-05T14:32:41.290Z,57.68
2018-07-05T14:35:27.693Z,57.53
2018-07-05T14:38:14.044Z,59.40
2018-07-05T14:41:00.650Z,57.65
2018-07-05T14:43:47.549Z,58.06
2018-07-05T14:46:35.234Z,58.41
2018-07-05T14:49:21.774Z,56.95
2018-07-05T14:52:08.334Z,57.25
2018-07-05T14:54:54.693Z,56.21
2018-07-05T14:57:41.201Z,59.32
2018-07-05T15:00:27.696Z,57.48
2018-07-05T15:03:14.042Z,57.34
2018-07-05T15:06:00.506Z,57.54
2018-07-05T15:08:47.232Z,57.02
2018-07-05T15:11:33.509Z,56.12
2018-07-05T15:14:20.138Z,56.25
2018-07-05T15:17:06.545Z,54.17
2018-07-05T15:19:53.074Z,54.55
2018-07-05T15:22:39.624Z,54.43
2018-07-05T15:25:26.261Z,57.68
2018-07-05T15:28:12.865Z,57.54
2018-07-05T15:30:59.647Z,58.29
2018-07-05T15:33:46.129Z,57.18
2018-07-05T15:36:32.719Z,56.35
2018-07-05T15:39:19.187Z,55.61
2018-07-05T15:42:05.529Z,57.48
2018-07-05T15:44:51.919Z,58.07
2018-07-05T15:47:38.775Z,56.85
2018-07-05T15:50:25.301Z,57.16
2018-07-05T15:53:12.190Z,57.46
2018-07-05T15:55:58.733Z,57.67
2018-07-05T15:58:45.152Z,59.53
2018-07-05T16:01:31.626Z,60.14
2018-07-05T16:04:18.182Z,59.89
2018-07-05T16:07:04.717Z,59.33
2018-07-05T16:09:51.442Z,58.99
2018-07-05T16:12:37.965Z,55.58
2018-07-05T16:15:24.532Z,55.57
2018-07-05T16:18:11.302Z,54.87
2018-07-05T16:20:57.782Z,55.19
2018-07-05T16:23:44.395Z,56.44
2018-07-05T16:26:30.916Z,55.70
2018-07-05T16:29:17.432Z,55.71
2018-07-05T16:32:04.007Z,56.16
2018-07-05T16:34:50.525Z,55.16
2018-07-05T16:37:37.105Z,56.23
2018-07-05T16:40:23.557Z,55.08
2018-07-05T16:43:10.125Z,54.39
2018-07-05T16:45:56.829Z,55.05
2018-07-05T16:48:43.317Z,54.63
2018-07-05T16:51:29.912Z,53.50
2018-07-05T16:54:16.381Z,52.46
2018-07-05T16:57:03.059Z,51.19
2018-07-05T16:59:49.742Z,50.84
2018-07-05T17:02:36.314Z,51.52
2018-07-05T17:05:22.681Z,51.49
2018-07-05T17:08:09.254Z,51.16
2018-07-05T17:10:56.107Z,52.17
2018-07-05T17:13:42.665Z,50.54
2018-07-05T17:16:28.997Z,51.00
2018-07-05T17:19:15.634Z,49.65
2018-07-05T17:22:01.876Z,49.97
2018-07-05T17:24:48.589Z,49.42
2018-07-05T17:27:35.283Z,50.13
2018-07-05T17:30:21.802Z,49.11
2018-07-05T17:33:08.474Z,48.79
2018-07-05T17:35:55.069Z,48.72
2018-07-05T17:38:41.613Z,48.88
2018-07-05T17:41:28.090Z,48.76
2018-07-05T17:44:14.782Z,49.36
2018-07-05T17:47:01.413Z,51.83
2018-07-05T17:49:47.838Z,53.31
2018-07-05T17:52:34.349Z,51.18
2018-07-05T17:55:21.061Z,52.37
2018-07-05T17:58:07.586Z,53.74
2018-07-05T18:00:54.148Z,51.90
2018-07-05T18:03:40.740Z,51.12
2018-07-05T18:06:27.361Z,52.56
2018-07-05T18:09:13.859Z,51.53
2018-07-05T18:12:00.554Z,52.14
2018-07-05T18:14:46.949Z,51.64
2018-07-05T18:17:33.592Z,50.60
2018-07-05T18:20:20.196Z,51.21
2018-07-05T18:23:06.848Z,52.44
2018-07-05T18:25:53.289Z,51.64
2018-07-05T18:28:40.030Z,53.54
2018-07-05T18:31:26.437Z,53.78
2018-07-05T18:34:13.025Z,53.15
2018-07-05T18:36:59.612Z,53.13
2018-07-05T18:39:46.173Z,53.47
2018-07-05T18:42:32.733Z,53.19
2018-07-05T18:45:19.145Z,52.70
2018-07-05T18:48:05.749Z,52.72
2018-07-05T18:50:52.325Z,51.92
2018-07-05T18:53:38.837Z,51.07
2018-07-05T18:56:25.491Z,51.90
2018-07-05T18:59:12.080Z,51.96
2018-07-05T19:01:58.678Z,51.39
2018-07-05T19:04:45.169Z,53.26
2018-07-05T19:07:31.674Z,53.22
2018-07-05T19:10:18.449Z,52.93
2018-07-05T19:13:05.029Z,53.25
2018-07-05T19:15:51.525Z,53.91
2018-07-05T19:18:38.242Z,54.83
2018-07-05T19:21:24.834Z,54.89
2018-07-05T19:24:11.513Z,53.91
2018-07-05T19:26:58.074Z,52.93
2018-07-05T19:29:44.681Z,54.77
2018-07-05T19:32:31.257Z,54.12
2018-07-05T19:35:17.857Z,54.53
2018-07-05T19:38:04.423Z,54.87
2018-07-05T19:40:50.898Z,53.85
2018-07-05T19:43:37.368Z,53.20
2018-07-05T19:46:23.877Z,54.18
2018-07-05T19:49:10.579Z,54.71
2018-07-05T19:51:57.074Z,53.39
2018-07-05T19:54:43.585Z,53.74
2018-07-05T19:57:30.067Z,53.08
2018-07-05T20:00:16.641Z,52.57
2018-07-05T20:03:03.050Z,52.55
2018-07-05T20:05:49.392Z,51.84
2018-07-05T20:08:35.924Z,53.45
2018-07-05T20:11:22.509Z,53.58
2018-07-05T20:14:09.261Z,53.66
2018-07-05T20:16:55.717Z,53.50
2018-07-05T20:19:42.101Z,53.21
2018-07-05T20:22:28.545Z,54.06
2018-07-05T20:25:15.230Z,53.04
2018-07-05T20:28:01.819Z,54.63
2018-07-05T20:30:48.585Z,54.66
2018-07-05T20:33:35.314Z,54.42
2018-07-05T20:36:21.798Z,54.47
2018-07-05T20:39:08.789Z,55.38
2018-07-05T20:41:54.981Z,57.13
2018-07-05T20:44:41.421Z,56.05
2018-07-05T20:47:27.790Z,58.83
2018-07-05T20:50:14.297Z,56.31
2018-07-05T20:53:00.775Z,56.66
2018-07-05T20:55:47.239Z,58.17
2018-07-05T20:58:33.507Z,57.54
2018-07-05T21:01:20.817Z,57.15
2018-07-05T21:04:07.493Z,57.91
2018-07-05T21:06:54.102Z,58.87
2018-07-05T21:09:40.887Z,58.07
2018-07-05T21:12:27.541Z,58.65
2018-07-05T21:15:14.363Z,58.60
2018-07-05T21:18:01.196Z,58.22
2018-07-05T21:20:47.940Z,57.14
2018-07-05T21:23:34.123Z,57.16
2018-07-05T21:26:20.580Z,56.42
2018-07-05T21:29:06.970Z,56.15
2018-07-05T21:31:53.285Z,54.25
2018-07-05T21:34:39.677Z,54.03
2018-07-05T21:37:26.043Z,53.44
2018-07-05T21:40:12.473Z,52.67
2018-07-05T21:42:58.858Z,53.81
2018-07-05T21:45:45.249Z,53.47
2018-07-05T21:48:31.625Z,54.07
2018-07-05T21:51:18.059Z,53.70
2018-07-05T21:54:04.440Z,54.01
2018-07-05T21:56:50.834Z,53.88
2018-07-05T21:59:37.187Z,53.44
2018-07-05T22:02:23.571Z,53.52
2018-07-05T22:05:13.211Z,55.14
2018-07-05T22:07:59.489Z,55.12
2018-07-05T22:10:45.998Z,53.62
2018-07-05T22:13:32.457Z,54.24
2018-07-05T22:16:18.965Z,55.57
2018-07-05T22:19:10.607Z,53.76
2018-07-05T22:22:02.074Z,54.31
2018-07-05T22:26:56.785Z,57.16
2018-07-05T22:29:48.508Z,56.91
2018-07-05T22:32:34.770Z,57.40
2018-07-05T22:35:21.199Z,56.62
2018-07-05T22:38:07.537Z,59.00
2018-07-05T22:40:53.913Z,57.81
2018-07-05T22:43:41.318Z,58.34
2018-07-05T22:46:27.745Z,57.06
2018-07-05T22:49:14.145Z,58.99
2018-07-05T22:52:00.618Z,56.45
2018-07-05T22:54:46.982Z,56.44
2018-07-05T22:57:33.405Z,56.80
2018-07-05T23:00:19.699Z,56.36
2018-07-05T23:03:06.115Z,56.94
2018-07-05T23:05:52.503Z,57.31
2018-07-05T23:08:38.862Z,58.49
2018-07-05T23:11:25.249Z,56.82
2018-07-05T23:14:11.665Z,57.88
2018-07-05T23:16:58.176Z,57.29
2018-07-05T23:19:44.577Z,56.75
2018-07-05T23:22:30.876Z,57.90
2018-07-05T23:25:17.209Z,58.42
2018-07-05T23:28:03.547Z,58.11
2018-07-05T23:30:49.963Z,59.37
2018-07-05T23:33:36.302Z,60.23
2018-07-05T23:36:22.546Z,59.06
2018-07-05T23:39:08.899Z,58.15
2018-07-05T23:41:55.354Z,58.62
2018-07-05T23:44:41.748Z,59.25
2018-07-05T23:47:28.195Z,59.72
2018-07-05T23:50:14.466Z,60.06
2018-07-05T23:53:00.882Z,60.55
2018-07-05T23:55:47.322Z,60.84
2018-07-05T23:58:33.726Z,61.79
